Карточка аэропорта URSS

Внимание!
Информация на этой странице в стадии наполнения.
Если вы не увидели какой-то информации, или заметили неточность - пожалуйста сообщите нам!
Спасибо!
Команда RU-STAFF
Название аэропортаСочи
Название аэропорта (англ.)Sochi
Превышение89 ft. (27.1 m.)
Координаты43°26.634', 39°56.55'
Высота перехода13000 ft
Эшелон переходаQNH>=977hPa: FL150; QNH<977hPa: FL160
Коды ответчика1060-1077
Зона ОрВДРостов-на-Дону РПИ (URRV)
Данные METARURSS 181200Z 23003MPS 9999 BKN030 18/10 Q1019 R06/010070 R02/010070 NOSIG RMK R02/19003MPS MT OBSC QFE763
Проноз погоды (TAF)URSS 181055Z 1812/1912 27005G10MPS 9999 SCT030TCU BECMG 1817/1818 05003G08MPS SCT020 TEMPO 1820/1906 04007MPS BECMG 1906/1907 18005G10MPS BECMG 1910/1911 27005G10MPS SCT030TCU
NOTAMshow/hide NOTAM
AWOS   TABLE

Информация о ВПП

ВПП Длина ВПП (м.) Покрытие Курс ВПП Частота ILS
022500Цементобетон22110.5
062890Цементобетон58111.1
202500Цементобетон202 
242890Цементобетон238 

Диспетчерские позиции

Позывной Наименование органа УВД Частота
URSSFM1119.000
URSS_APPСочи-Подход124.600
URSS_DELСочи-Деливери132.700
URSS_GNDСочи-Руление119.000
URSS_R_APPСочи-Круг119.700
URSS_TWRСочи-Старт121.200



Спутниковое изображение